createdAt,value
2016-12-09T00:00:38.762Z,42.33
2016-12-09T00:01:19.608Z,42.33
2016-12-09T00:02:00.458Z,41.75
2016-12-09T00:02:41.291Z,42.24
2016-12-09T00:03:22.197Z,42.14
2016-12-09T00:04:03.054Z,42.04
2016-12-09T00:04:43.902Z,42.14
2016-12-09T00:05:24.778Z,42.24
2016-12-09T00:06:05.662Z,42.24
2016-12-09T00:06:46.502Z,41.85
2016-12-09T00:07:27.355Z,42.04
2016-12-09T00:08:08.216Z,42.24
2016-12-09T00:08:49.063Z,42.24
2016-12-09T00:09:29.929Z,42.24
2016-12-09T00:10:10.786Z,41.85
2016-12-09T00:10:51.626Z,41.85
2016-12-09T00:11:32.467Z,42.24
2016-12-09T00:12:13.313Z,41.85
2016-12-09T00:12:54.158Z,42.24
2016-12-09T00:13:35.022Z,42.43
2016-12-09T00:14:15.883Z,42.33
2016-12-09T00:14:56.759Z,41.75
2016-12-09T00:15:37.648Z,42.24
2016-12-09T00:16:18.491Z,41.94
2016-12-09T00:16:59.343Z,42.14
2016-12-09T00:17:40.201Z,42.14
2016-12-09T00:18:21.092Z,42.33
2016-12-09T00:19:01.944Z,41.94
2016-12-09T00:19:42.809Z,42.24
2016-12-09T00:20:23.692Z,42.33
2016-12-09T00:21:04.531Z,42.04
2016-12-09T00:21:45.420Z,42.14
2016-12-09T00:22:26.275Z,42.14
2016-12-09T00:23:07.132Z,42.14
2016-12-09T00:23:47.983Z,42.33
2016-12-09T00:24:28.843Z,42.04
2016-12-09T00:25:09.699Z,42.24
2016-12-09T00:25:50.640Z,42.24
2016-12-09T00:26:31.487Z,42.04
2016-12-09T00:27:12.356Z,41.94
2016-12-09T00:27:53.221Z,42.33
2016-12-09T00:28:34.049Z,42.14
2016-12-09T00:29:14.963Z,42.24
2016-12-09T00:29:55.855Z,42.24
2016-12-09T00:30:36.711Z,42.33
2016-12-09T00:31:17.572Z,42.33
2016-12-09T00:31:58.471Z,42.24
2016-12-09T00:32:39.323Z,42.04
2016-12-09T00:33:20.177Z,42.14
2016-12-09T00:34:01.027Z,41.75
2016-12-09T00:34:41.897Z,42.33
2016-12-09T00:35:22.754Z,42.33
2016-12-09T00:36:03.630Z,42.04
2016-12-09T00:36:44.504Z,42.04
2016-12-09T00:37:25.333Z,42.24
2016-12-09T00:38:06.211Z,41.94
2016-12-09T00:38:47.063Z,42.33
2016-12-09T00:39:27.926Z,42.04
2016-12-09T00:40:08.771Z,42.43
2016-12-09T00:40:49.639Z,42.52
2016-12-09T00:41:30.488Z,42.24
2016-12-09T00:42:11.353Z,42.33
2016-12-09T00:42:52.214Z,42.24
2016-12-09T00:43:33.133Z,42.43
2016-12-09T00:44:13.984Z,42.62
2016-12-09T00:44:54.849Z,42.24
2016-12-09T00:45:35.720Z,42.24
2016-12-09T00:46:16.571Z,42.62
2016-12-09T00:46:57.417Z,42.62
2016-12-09T00:47:38.308Z,42.33
2016-12-09T00:48:19.212Z,42.43
2016-12-09T00:49:00.046Z,42.33
2016-12-09T00:49:40.907Z,42.14
2016-12-09T00:50:21.772Z,42.24
2016-12-09T00:51:02.615Z,42.52
2016-12-09T00:51:43.507Z,42.33
2016-12-09T00:52:24.389Z,42.33
2016-12-09T00:53:05.276Z,42.24
2016-12-09T00:53:46.146Z,42.33
2016-12-09T00:54:27.026Z,42.33
2016-12-09T00:55:07.912Z,42.43
2016-12-09T00:55:48.780Z,42.33
2016-12-09T00:56:29.625Z,42.33
2016-12-09T00:57:10.477Z,42.33
2016-12-09T00:57:51.330Z,42.24
2016-12-09T00:58:32.193Z,42.14
2016-12-09T00:59:13.046Z,42.43
2016-12-09T00:59:53.924Z,42.24
2016-12-09T01:00:34.788Z,42.43
2016-12-09T01:01:15.680Z,42.33
2016-12-09T01:01:56.547Z,42.33
2016-12-09T01:02:37.443Z,41.85
2016-12-09T01:03:18.279Z,42.52
2016-12-09T01:03:59.190Z,42.33
2016-12-09T01:04:40.100Z,42.72
2016-12-09T01:05:20.981Z,42.52
2016-12-09T01:06:01.812Z,42.52
2016-12-09T01:06:42.637Z,42.43
2016-12-09T01:07:23.477Z,42.62
2016-12-09T01:08:04.313Z,42.33
2016-12-09T01:08:45.119Z,42.24
2016-12-09T01:09:25.939Z,42.33
2016-12-09T01:10:06.775Z,42.33
2016-12-09T01:10:47.584Z,42.33
2016-12-09T01:11:28.439Z,42.24
2016-12-09T01:12:09.245Z,42.43
2016-12-09T01:12:50.070Z,42.04
2016-12-09T01:13:30.878Z,42.14
2016-12-09T01:14:11.696Z,42.04
2016-12-09T01:14:52.546Z,42.14
2016-12-09T01:15:33.386Z,42.04
2016-12-09T01:16:14.199Z,41.94
2016-12-09T01:16:55.066Z,42.24
2016-12-09T01:17:35.925Z,42.04
2016-12-09T01:18:16.803Z,42.33
2016-12-09T01:18:57.635Z,42.33
2016-12-09T01:19:38.463Z,42.33
2016-12-09T01:20:19.272Z,42.04
2016-12-09T01:21:00.124Z,41.94
2016-12-09T01:21:40.950Z,42.33
2016-12-09T01:22:21.766Z,42.33
2016-12-09T01:23:02.565Z,42.24
2016-12-09T01:23:43.392Z,42.24
2016-12-09T01:24:24.201Z,41.85
2016-12-09T01:25:05.075Z,41.94
2016-12-09T01:25:45.911Z,42.14
2016-12-09T01:26:26.730Z,42.33
2016-12-09T01:27:07.577Z,42.52
2016-12-09T01:27:48.403Z,42.33
2016-12-09T01:28:29.247Z,42.33
2016-12-09T01:29:10.098Z,42.52
2016-12-09T01:29:50.903Z,42.43
2016-12-09T01:30:32.364Z,42.33
2016-12-09T01:31:13.182Z,42.33
2016-12-09T01:31:53.997Z,42.24
2016-12-09T01:32:34.823Z,42.04
2016-12-09T01:33:15.636Z,41.75
2016-12-09T01:33:56.482Z,42.24
2016-12-09T01:34:37.327Z,42.14
2016-12-09T01:35:18.164Z,42.33
2016-12-09T01:35:58.978Z,42.14
2016-12-09T01:36:39.792Z,42.04
2016-12-09T01:37:20.596Z,42.24
2016-12-09T01:38:01.436Z,41.94
2016-12-09T01:38:42.258Z,42.04
2016-12-09T01:39:23.073Z,41.56
2016-12-09T01:40:03.906Z,42.04
2016-12-09T01:40:44.779Z,42.33
2016-12-09T01:41:25.627Z,42.14
2016-12-09T01:42:06.418Z,42.33
2016-12-09T01:42:47.238Z,41.94
2016-12-09T01:43:28.066Z,42.14
2016-12-09T01:44:08.898Z,42.62
2016-12-09T01:44:49.704Z,42.24
2016-12-09T01:45:30.518Z,42.43
2016-12-09T01:46:11.404Z,42.24
2016-12-09T01:46:52.236Z,42.52
2016-12-09T01:47:33.048Z,42.52
2016-12-09T01:48:13.871Z,42.43
2016-12-09T01:48:54.678Z,42.14
2016-12-09T01:49:35.543Z,42.52
2016-12-09T01:50:16.428Z,42.24
2016-12-09T01:50:57.262Z,42.33
2016-12-09T01:51:38.102Z,42.24
2016-12-09T01:52:18.909Z,42.14
2016-12-09T01:52:59.733Z,42.24
2016-12-09T01:53:40.547Z,42.33
2016-12-09T01:54:21.366Z,42.33
2016-12-09T01:55:02.175Z,42.43
2016-12-09T01:55:43.061Z,42.52
2016-12-09T01:56:23.928Z,42.24
2016-12-09T01:57:04.751Z,41.94
2016-12-09T01:57:45.547Z,42.33
2016-12-09T01:58:26.425Z,42.14
2016-12-09T01:59:07.270Z,42.33
2016-12-09T01:59:48.080Z,42.43
2016-12-09T02:00:28.908Z,42.33
2016-12-09T02:01:09.709Z,42.43
2016-12-09T02:01:50.578Z,42.24
2016-12-09T02:02:31.399Z,42.52
2016-12-09T02:03:12.230Z,42.43
2016-12-09T02:03:53.068Z,42.33
2016-12-09T02:04:33.924Z,42.33
2016-12-09T02:05:14.790Z,41.66
2016-12-09T02:05:55.619Z,42.04
2016-12-09T02:06:36.461Z,42.14
2016-12-09T02:07:17.269Z,41.94
2016-12-09T02:07:58.107Z,42.24
2016-12-09T02:08:38.947Z,42.24
2016-12-09T02:09:19.798Z,42.04
2016-12-09T02:10:00.642Z,41.94
2016-12-09T02:10:41.467Z,42.04
2016-12-09T02:11:22.287Z,42.33
2016-12-09T02:12:03.107Z,42.33
2016-12-09T02:12:43.909Z,42.24
2016-12-09T02:13:24.741Z,42.43
2016-12-09T02:14:05.545Z,42.24
2016-12-09T02:14:46.364Z,42.14
2016-12-09T02:15:27.196Z,42.24
2016-12-09T02:16:08.102Z,42.04
2016-12-09T02:16:48.961Z,41.94
2016-12-09T02:17:29.813Z,41.94
2016-12-09T02:18:10.612Z,42.14
2016-12-09T02:18:51.433Z,42.04
2016-12-09T02:19:32.278Z,42.33
2016-12-09T02:20:13.124Z,42.43
2016-12-09T02:20:53.960Z,42.33
2016-12-09T02:21:34.831Z,42.24
2016-12-09T02:22:15.647Z,41.85
2016-12-09T02:22:56.494Z,41.94
2016-12-09T02:23:37.313Z,42.04
2016-12-09T02:24:18.177Z,42.43
2016-12-09T02:24:58.987Z,42.33
2016-12-09T02:25:39.847Z,42.14
2016-12-09T02:26:20.699Z,42.43
2016-12-09T02:27:01.554Z,42.24
2016-12-09T02:27:42.383Z,42.43
2016-12-09T02:28:23.200Z,42.43
2016-12-09T02:29:04.024Z,42.43
2016-12-09T02:29:44.863Z,42.33
2016-12-09T02:30:25.695Z,42.33
2016-12-09T02:31:06.533Z,42.43
2016-12-09T02:31:47.385Z,42.33
2016-12-09T02:32:28.329Z,42.72
2016-12-09T02:33:09.140Z,42.52
2016-12-09T02:33:49.981Z,42.33
2016-12-09T02:34:30.794Z,42.33
2016-12-09T02:35:11.631Z,42.14
2016-12-09T02:35:52.472Z,42.24
2016-12-09T02:36:33.308Z,42.24
2016-12-09T02:37:14.139Z,42.52
2016-12-09T02:37:54.961Z,42.24
2016-12-09T02:38:35.816Z,42.14
2016-12-09T02:39:16.671Z,42.14
2016-12-09T02:39:57.525Z,42.14
2016-12-09T02:40:38.338Z,42.33
2016-12-09T02:41:19.189Z,42.24
2016-12-09T02:42:00.019Z,42.14
2016-12-09T02:42:40.873Z,42.33
2016-12-09T02:43:21.699Z,41.85
2016-12-09T02:44:02.555Z,42.14
2016-12-09T02:44:43.377Z,42.33
2016-12-09T02:45:24.199Z,42.62
2016-12-09T02:46:05.024Z,42.14
2016-12-09T02:46:45.847Z,41.94
2016-12-09T02:47:26.683Z,42.04
2016-12-09T02:48:07.550Z,42.24
2016-12-09T02:48:48.385Z,42.14
2016-12-09T02:49:29.213Z,42.33
2016-12-09T02:50:10.033Z,42.24
2016-12-09T02:50:50.853Z,42.24
2016-12-09T02:51:31.660Z,42.33
2016-12-09T02:52:12.498Z,42.14
2016-12-09T02:52:53.310Z,42.33
2016-12-09T02:53:34.133Z,42.33
2016-12-09T02:54:14.973Z,42.24
2016-12-09T02:54:55.801Z,41.75
2016-12-09T02:55:36.645Z,42.04
2016-12-09T02:56:17.455Z,42.33
2016-12-09T02:56:58.318Z,42.14
2016-12-09T02:57:39.106Z,42.04
2016-12-09T02:58:19.927Z,42.14
2016-12-09T02:59:00.737Z,41.85
2016-12-09T02:59:41.562Z,41.94
2016-12-09T03:00:22.407Z,42.04
2016-12-09T03:01:03.244Z,41.94
2016-12-09T03:01:44.057Z,42.14
2016-12-09T03:02:24.871Z,42.24
2016-12-09T03:03:05.705Z,42.04
2016-12-09T03:03:46.513Z,42.14
2016-12-09T03:04:27.344Z,42.33
2016-12-09T03:05:08.160Z,42.33
2016-12-09T03:05:49.000Z,42.33
2016-12-09T03:06:29.824Z,42.04
2016-12-09T03:07:10.666Z,41.85
2016-12-09T03:07:51.453Z,42.04
2016-12-09T03:08:32.323Z,42.04
2016-12-09T03:09:13.122Z,42.24
2016-12-09T03:09:53.980Z,42.24
2016-12-09T03:10:34.848Z,41.94
2016-12-09T03:11:15.712Z,42.14
2016-12-09T03:11:56.529Z,41.94
2016-12-09T03:12:37.399Z,41.85
2016-12-09T03:13:18.196Z,42.14
2016-12-09T03:13:59.031Z,41.85
2016-12-09T03:14:39.846Z,41.85
2016-12-09T03:15:20.661Z,42.24
2016-12-09T03:16:01.499Z,41.85
2016-12-09T03:16:42.321Z,42.04
2016-12-09T03:17:23.131Z,42.24
2016-12-09T03:18:04.019Z,42.33
2016-12-09T03:18:44.857Z,42.04
2016-12-09T03:19:25.667Z,42.04
2016-12-09T03:20:06.496Z,42.04
2016-12-09T03:20:47.330Z,42.24
2016-12-09T03:21:28.169Z,42.04
2016-12-09T03:22:08.968Z,42.24
2016-12-09T03:22:49.844Z,41.85
2016-12-09T03:23:30.684Z,42.14
2016-12-09T03:24:11.530Z,41.66
2016-12-09T03:24:52.355Z,41.94
2016-12-09T03:25:33.205Z,42.24
2016-12-09T03:26:14.022Z,42.33
2016-12-09T03:26:54.884Z,42.24
2016-12-09T03:27:35.714Z,42.04
2016-12-09T03:28:16.529Z,42.04
2016-12-09T03:28:57.344Z,41.94
2016-12-09T03:29:38.190Z,42.14
2016-12-09T03:30:19.013Z,41.85
2016-12-09T03:30:59.815Z,41.94
2016-12-09T03:31:40.724Z,42.14
2016-12-09T03:32:21.538Z,41.85
2016-12-09T03:33:02.404Z,41.94
2016-12-09T03:33:43.271Z,41.85
2016-12-09T03:34:24.109Z,42.02
2016-12-09T03:35:04.926Z,42.12
2016-12-09T03:35:45.787Z,42.33
2016-12-09T03:36:26.637Z,41.75
2016-12-09T03:37:07.491Z,42.14
2016-12-09T03:37:48.332Z,42.14
2016-12-09T03:38:29.105Z,42.14
2016-12-09T03:39:09.977Z,42.41
2016-12-09T03:39:50.800Z,42.24
2016-12-09T03:40:31.686Z,42.24
2016-12-09T03:41:12.525Z,41.94
2016-12-09T03:41:53.374Z,42.04
2016-12-09T03:42:34.171Z,42.24
2016-12-09T03:43:14.995Z,42.21
2016-12-09T03:43:55.820Z,42.33
2016-12-09T03:44:36.650Z,42.33
2016-12-09T03:45:17.498Z,41.94
2016-12-09T03:45:58.336Z,42.33
2016-12-09T03:46:39.161Z,42.14
2016-12-09T03:47:19.980Z,42.14
2016-12-09T03:48:00.794Z,41.94
2016-12-09T03:48:41.611Z,41.93
2016-12-09T03:49:22.422Z,42.21
2016-12-09T03:50:03.244Z,42.02
2016-12-09T03:50:44.063Z,41.94
2016-12-09T03:51:24.914Z,42.14
2016-12-09T03:52:05.755Z,42.14
2016-12-09T03:52:46.625Z,41.94
2016-12-09T03:53:27.451Z,42.14
2016-12-09T03:54:08.342Z,42.04
2016-12-09T03:54:49.185Z,42.24
2016-12-09T03:55:30.011Z,42.24
2016-12-09T03:56:10.814Z,42.33
2016-12-09T03:56:51.637Z,41.94
2016-12-09T03:57:32.479Z,42.04
2016-12-09T03:58:13.340Z,42.04
2016-12-09T03:58:54.168Z,42.02
2016-12-09T03:59:35.015Z,42.33
2016-12-09T04:00:15.848Z,42.04
2016-12-09T04:00:56.686Z,42.24
2016-12-09T04:01:37.514Z,42.12
2016-12-09T04:02:18.329Z,41.94
2016-12-09T04:02:59.157Z,41.94
2016-12-09T04:03:39.971Z,42.24
2016-12-09T04:04:20.835Z,42.24
2016-12-09T04:05:01.648Z,42.14
2016-12-09T04:05:42.481Z,42.14
2016-12-09T04:06:23.324Z,42.04
2016-12-09T04:07:04.161Z,41.94
2016-12-09T04:07:44.981Z,41.94
2016-12-09T04:08:25.799Z,41.94
2016-12-09T04:09:06.645Z,42.21
2016-12-09T04:09:47.480Z,42.21
2016-12-09T04:10:28.313Z,42.04
2016-12-09T04:11:09.106Z,41.94
2016-12-09T04:11:49.922Z,41.66
2016-12-09T04:12:30.742Z,41.94
2016-12-09T04:13:11.584Z,41.94
2016-12-09T04:13:52.393Z,41.83
2016-12-09T04:14:33.213Z,42.14
2016-12-09T04:15:14.047Z,41.94
2016-12-09T04:15:54.909Z,41.94
2016-12-09T04:16:35.768Z,41.85
2016-12-09T04:17:16.582Z,42.14
2016-12-09T04:17:57.397Z,41.94
2016-12-09T04:18:38.224Z,42.04
2016-12-09T04:19:19.042Z,41.94
2016-12-09T04:19:59.903Z,42.24
2016-12-09T04:20:40.733Z,42.04
2016-12-09T04:21:21.584Z,41.94
2016-12-09T04:22:02.403Z,42.14
2016-12-09T04:22:43.259Z,41.93
2016-12-09T04:23:24.139Z,42.02
2016-12-09T04:24:04.966Z,41.93
2016-12-09T04:24:45.802Z,42.14
2016-12-09T04:25:26.619Z,42.24
2016-12-09T04:26:07.438Z,42.24
2016-12-09T04:26:48.257Z,41.94
2016-12-09T04:27:29.101Z,42.14
2016-12-09T04:28:09.920Z,42.14
2016-12-09T04:28:50.747Z,41.93
2016-12-09T04:29:31.575Z,42.04
2016-12-09T04:30:12.432Z,42.14
2016-12-09T04:30:53.258Z,41.94
2016-12-09T04:31:34.080Z,41.94
2016-12-09T04:32:14.909Z,42.24
2016-12-09T04:32:55.719Z,41.94
2016-12-09T04:33:36.545Z,42.24
2016-12-09T04:34:17.373Z,41.94
2016-12-09T04:34:58.223Z,42.14
2016-12-09T04:35:39.011Z,42.14
2016-12-09T04:36:19.838Z,42.04
2016-12-09T04:37:00.653Z,42.04
2016-12-09T04:37:41.454Z,42.12
2016-12-09T04:38:22.827Z,42.04
2016-12-09T04:39:03.120Z,42.04
2016-12-09T04:39:43.944Z,42.14
2016-12-09T04:40:24.767Z,42.02
2016-12-09T04:41:05.611Z,42.12
2016-12-09T04:41:46.430Z,42.14
2016-12-09T04:42:27.330Z,42.14
2016-12-09T04:43:08.170Z,41.93
2016-12-09T04:43:48.978Z,42.12
2016-12-09T04:44:29.794Z,42.04
2016-12-09T04:45:10.643Z,42.24
2016-12-09T04:45:51.456Z,41.94
2016-12-09T04:46:32.266Z,41.94
2016-12-09T04:47:13.099Z,42.04
2016-12-09T04:47:53.910Z,41.94
2016-12-09T04:48:34.726Z,41.94
2016-12-09T04:49:15.575Z,42.24
2016-12-09T04:49:56.386Z,41.94
2016-12-09T04:50:37.218Z,41.93
2016-12-09T04:51:18.049Z,42.04
2016-12-09T04:51:58.872Z,42.02
2016-12-09T04:52:39.713Z,41.93
2016-12-09T04:53:20.569Z,41.94
2016-12-09T04:54:01.379Z,42.04
2016-12-09T04:54:42.194Z,41.85
2016-12-09T04:55:23.009Z,42.04
2016-12-09T04:56:03.831Z,41.93
2016-12-09T04:56:44.638Z,42.04
2016-12-09T04:57:25.480Z,42.31
2016-12-09T04:58:06.329Z,41.94
2016-12-09T04:58:47.160Z,41.94
2016-12-09T04:59:27.960Z,42.24
2016-12-09T05:00:08.793Z,41.93
2016-12-09T05:00:49.587Z,41.94
2016-12-09T05:01:30.502Z,42.14
2016-12-09T05:02:11.368Z,42.04
2016-12-09T05:02:52.208Z,41.93
2016-12-09T05:03:33.047Z,42.02
2016-12-09T05:04:13.898Z,42.14
2016-12-09T05:04:54.773Z,42.04
2016-12-09T05:05:35.599Z,42.14
2016-12-09T05:06:16.415Z,42.02
2016-12-09T05:06:57.235Z,42.02
2016-12-09T05:07:38.108Z,42.02
2016-12-09T05:08:18.949Z,42.14
2016-12-09T05:08:59.781Z,42.24
2016-12-09T05:09:40.629Z,42.12
2016-12-09T05:10:21.491Z,42.04
2016-12-09T05:11:02.346Z,41.83
2016-12-09T05:11:43.161Z,42.02
2016-12-09T05:12:23.994Z,41.94
2016-12-09T05:13:04.829Z,41.73
2016-12-09T05:13:45.684Z,42.21
2016-12-09T05:14:26.502Z,42.14
2016-12-09T05:15:07.330Z,41.94
2016-12-09T05:15:48.173Z,42.14
2016-12-09T05:16:29.015Z,42.12
2016-12-09T05:17:09.877Z,42.12
2016-12-09T05:17:50.705Z,41.94
2016-12-09T05:18:31.528Z,41.63
2016-12-09T05:19:12.337Z,42.21
2016-12-09T05:19:53.166Z,42.14
2016-12-09T05:20:33.966Z,42.12
2016-12-09T05:21:14.816Z,42.14
2016-12-09T05:21:55.707Z,41.93
2016-12-09T05:22:36.559Z,42.24
2016-12-09T05:23:17.416Z,42.12
2016-12-09T05:23:58.227Z,42.04
2016-12-09T05:24:39.054Z,42.12
2016-12-09T05:25:19.887Z,41.94
2016-12-09T05:26:00.696Z,42.14
2016-12-09T05:26:42.423Z,42.12
2016-12-09T05:27:23.267Z,42.04
2016-12-09T05:28:04.098Z,42.12
2016-12-09T05:28:44.921Z,42.14
2016-12-09T05:29:25.755Z,41.94
2016-12-09T05:30:06.581Z,41.93
2016-12-09T05:30:47.418Z,41.83
2016-12-09T05:31:28.284Z,41.94
2016-12-09T05:32:09.119Z,41.93
2016-12-09T05:32:49.938Z,42.12
2016-12-09T05:33:30.807Z,42.12
2016-12-09T05:34:11.670Z,42.02
2016-12-09T05:34:52.514Z,42.21
2016-12-09T05:35:33.369Z,41.94
2016-12-09T05:36:14.184Z,42.02
2016-12-09T05:36:55.016Z,41.93
2016-12-09T05:37:35.881Z,42.02
2016-12-09T05:38:16.731Z,42.04
2016-12-09T05:38:57.579Z,42.12
2016-12-09T05:39:38.415Z,42.12
2016-12-09T05:40:19.282Z,41.93
2016-12-09T05:41:00.094Z,41.93
2016-12-09T05:41:40.963Z,42.12
2016-12-09T05:42:21.822Z,42.02
2016-12-09T05:43:02.643Z,42.14
2016-12-09T05:43:43.484Z,41.93
2016-12-09T05:44:24.342Z,42.24
2016-12-09T05:45:05.170Z,42.12
2016-12-09T05:45:46.009Z,42.02
2016-12-09T05:46:26.851Z,42.02
2016-12-09T05:47:07.701Z,41.93
2016-12-09T05:47:48.550Z,42.12
2016-12-09T05:48:29.354Z,42.12
2016-12-09T05:49:10.183Z,41.94
2016-12-09T05:49:51.039Z,42.04
2016-12-09T05:50:31.853Z,42.14
2016-12-09T05:51:12.701Z,41.94
2016-12-09T05:51:53.508Z,41.94
2016-12-09T05:52:34.348Z,42.02
2016-12-09T05:53:15.186Z,41.94
2016-12-09T05:53:56.043Z,41.94
2016-12-09T05:54:36.877Z,42.02
2016-12-09T05:55:17.691Z,41.83
2016-12-09T05:55:58.565Z,41.94
2016-12-09T05:56:39.412Z,41.83
2016-12-09T05:57:20.250Z,41.94
2016-12-09T05:58:01.077Z,42.02
2016-12-09T05:58:41.992Z,41.93
2016-12-09T05:59:22.826Z,42.31
2016-12-09T06:00:03.642Z,42.21
2016-12-09T06:00:44.506Z,42.12
2016-12-09T06:01:25.376Z,42.21
2016-12-09T06:02:06.209Z,42.12
2016-12-09T06:02:47.028Z,41.93
2016-12-09T06:03:27.835Z,42.33
2016-12-09T06:04:08.682Z,41.73
2016-12-09T06:04:49.557Z,42.12
2016-12-09T06:05:30.362Z,42.12
2016-12-09T06:06:11.180Z,42.12
2016-12-09T06:06:52.014Z,42.04
2016-12-09T06:07:32.825Z,41.85
2016-12-09T06:08:13.675Z,41.94
2016-12-09T06:08:54.516Z,41.83
2016-12-09T06:09:35.359Z,41.94
2016-12-09T06:10:16.197Z,42.14
2016-12-09T06:10:57.073Z,42.12
2016-12-09T06:11:37.926Z,42.12
2016-12-09T06:12:18.758Z,42.21
2016-12-09T06:12:59.556Z,42.02
2016-12-09T06:13:40.385Z,42.21
2016-12-09T06:14:21.238Z,41.85
2016-12-09T06:15:02.111Z,42.04
2016-12-09T06:15:42.933Z,42.24
2016-12-09T06:16:23.805Z,41.93
2016-12-09T06:17:04.603Z,41.94
2016-12-09T06:17:45.446Z,42.02
2016-12-09T06:18:26.287Z,41.93
2016-12-09T06:19:07.123Z,41.94
2016-12-09T06:19:47.973Z,42.02
2016-12-09T06:20:28.838Z,41.93
2016-12-09T06:21:09.690Z,41.93
2016-12-09T06:21:50.523Z,42.21
2016-12-09T06:22:31.390Z,42.04
2016-12-09T06:23:12.214Z,42.12
2016-12-09T06:23:53.031Z,42.02
2016-12-09T06:24:33.852Z,41.94
2016-12-09T06:25:14.665Z,41.94
2016-12-09T06:25:55.493Z,41.93
2016-12-09T06:26:36.293Z,42.14
2016-12-09T06:27:17.133Z,41.93
2016-12-09T06:27:58.006Z,42.14
2016-12-09T06:28:38.836Z,41.83
2016-12-09T06:29:19.647Z,41.93
2016-12-09T06:30:00.555Z,42.21
2016-12-09T06:30:41.372Z,41.83
2016-12-09T06:31:22.212Z,42.02
2016-12-09T06:32:03.052Z,42.02
2016-12-09T06:32:43.870Z,42.02
2016-12-09T06:33:24.684Z,42.6
2016-12-09T06:34:05.486Z,42.31
2016-12-09T06:34:46.325Z,42.02
2016-12-09T06:35:27.147Z,42.21
2016-12-09T06:36:07.970Z,42.21
2016-12-09T06:36:48.777Z,41.93
2016-12-09T06:37:29.614Z,42.02
2016-12-09T06:38:10.425Z,41.93
2016-12-09T06:38:51.253Z,41.75
2016-12-09T06:39:32.061Z,42.12
2016-12-09T06:40:12.911Z,42.02
2016-12-09T06:40:53.771Z,42.12
2016-12-09T06:41:34.595Z,42.02
2016-12-09T06:42:15.413Z,41.93
2016-12-09T06:42:56.289Z,42.02
2016-12-09T06:43:38.031Z,42.31
2016-12-09T06:44:18.847Z,42.12
2016-12-09T06:44:59.672Z,42.41
2016-12-09T06:45:40.495Z,42.41
2016-12-09T06:46:21.287Z,41.93
2016-12-09T06:47:02.145Z,42.41
2016-12-09T06:47:42.953Z,42.31
2016-12-09T06:48:23.848Z,42.12
2016-12-09T06:49:04.714Z,42.12
2016-12-09T06:49:45.567Z,41.83
2016-12-09T06:50:26.432Z,42.31
2016-12-09T06:51:07.240Z,42.02
2016-12-09T06:51:48.076Z,42.21
2016-12-09T06:52:28.894Z,41.93
2016-12-09T06:53:09.715Z,42.02
2016-12-09T06:53:50.601Z,42.02
2016-12-09T06:54:31.424Z,42.02
2016-12-09T06:55:12.257Z,42.31
2016-12-09T06:55:53.095Z,41.93
2016-12-09T06:56:33.894Z,42.04
2016-12-09T06:57:14.741Z,42.21
2016-12-09T06:57:55.577Z,41.93
2016-12-09T06:58:36.397Z,41.93
2016-12-09T06:59:17.335Z,41.54
2016-12-09T06:59:58.201Z,42.02
2016-12-09T07:00:39.045Z,42.21
2016-12-09T07:01:19.909Z,42.02
2016-12-09T07:02:00.727Z,42.04
2016-12-09T07:02:41.565Z,42.24
2016-12-09T07:03:22.375Z,42.14
2016-12-09T07:04:03.173Z,41.94
2016-12-09T07:04:44.066Z,42.12
2016-12-09T07:05:24.894Z,41.93
2016-12-09T07:06:05.694Z,41.93
2016-12-09T07:06:46.516Z,42.12
2016-12-09T07:07:27.332Z,41.83
2016-12-09T07:08:08.172Z,42.14
2016-12-09T07:08:48.999Z,41.83
2016-12-09T07:09:29.837Z,42.14
2016-12-09T07:10:10.660Z,42.02
2016-12-09T07:10:51.480Z,42.12
2016-12-09T07:11:32.306Z,42.5
2016-12-09T07:12:13.152Z,42.21
2016-12-09T07:12:53.993Z,42.21
2016-12-09T07:13:34.829Z,42.52
2016-12-09T07:14:15.659Z,42.24
2016-12-09T07:14:56.498Z,42.12
2016-12-09T07:15:37.334Z,42.21
2016-12-09T07:16:18.164Z,42.31
2016-12-09T07:16:59.004Z,42.31
2016-12-09T07:17:39.831Z,42.31
2016-12-09T07:18:20.649Z,42.41
2016-12-09T07:19:01.466Z,42.31
2016-12-09T07:19:42.281Z,42.31
2016-12-09T07:20:23.108Z,42.7
2016-12-09T07:21:03.950Z,42.7
2016-12-09T07:21:44.774Z,42.89
2016-12-09T07:22:25.609Z,43.18
2016-12-09T07:23:06.448Z,43.16
2016-12-09T07:23:47.247Z,43.16
2016-12-09T07:24:28.086Z,43.35
2016-12-09T07:25:08.889Z,43.35
2016-12-09T07:25:49.721Z,43.26
2016-12-09T07:26:30.533Z,43.35
2016-12-09T07:27:11.373Z,43.47
2016-12-09T07:27:52.222Z,43.45
2016-12-09T07:28:33.026Z,43.37
2016-12-09T07:29:13.853Z,43.54
2016-12-09T07:29:54.706Z,43.45
2016-12-09T07:30:35.551Z,43.45
2016-12-09T07:31:16.371Z,43.35
2016-12-09T07:31:57.202Z,43.45
2016-12-09T07:32:38.026Z,43.16
2016-12-09T07:33:18.867Z,43.26
2016-12-09T07:33:59.692Z,43.16
2016-12-09T07:34:40.527Z,43.26
2016-12-09T07:35:21.349Z,43.26
2016-12-09T07:36:02.172Z,43.16
2016-12-09T07:36:43.011Z,43.18
2016-12-09T07:37:23.813Z,43.26
2016-12-09T07:38:04.657Z,43.16
2016-12-09T07:38:45.464Z,43.26
2016-12-09T07:39:26.284Z,43.26
2016-12-09T07:40:07.125Z,43.26
2016-12-09T07:40:47.942Z,42.97
2016-12-09T07:41:28.782Z,42.99
2016-12-09T07:42:09.620Z,43.26
2016-12-09T07:42:50.447Z,43.06
2016-12-09T07:43:31.270Z,42.87
2016-12-09T07:44:12.095Z,42.87
2016-12-09T07:44:52.921Z,42.89
2016-12-09T07:45:33.732Z,42.58
2016-12-09T07:46:15.558Z,42.99
2016-12-09T07:46:56.387Z,42.7
2016-12-09T07:47:37.240Z,42.58
2016-12-09T07:48:18.065Z,42.48
2016-12-09T07:48:58.892Z,42.79
2016-12-09T07:49:39.728Z,42.79
2016-12-09T07:50:20.549Z,42.68
2016-12-09T07:51:01.401Z,42.68
2016-12-09T07:51:42.224Z,42.7
2016-12-09T07:52:23.042Z,42.58
2016-12-09T07:53:03.853Z,42.58
2016-12-09T07:53:44.686Z,42.58
2016-12-09T07:54:25.523Z,42.77
2016-12-09T07:55:06.348Z,42.68
2016-12-09T07:55:47.173Z,42.58
2016-12-09T07:56:28.018Z,42.58
2016-12-09T07:57:08.838Z,42.48
2016-12-09T07:57:49.676Z,42.39
2016-12-09T07:58:30.476Z,42.39
2016-12-09T07:59:11.295Z,42.21
2016-12-09T07:59:52.134Z,42.6
2016-12-09T08:00:32.967Z,42.39
2016-12-09T08:01:13.807Z,42.1
2016-12-09T08:01:54.621Z,42.19
2016-12-09T08:02:35.443Z,42.29
2016-12-09T08:03:16.260Z,42
2016-12-09T08:03:57.084Z,42.39
2016-12-09T08:04:37.929Z,41.81
2016-12-09T08:05:18.740Z,42.29
2016-12-09T08:05:59.571Z,41.91
2016-12-09T08:06:40.392Z,42
2016-12-09T08:07:21.222Z,41.93
2016-12-09T08:08:02.035Z,42
2016-12-09T08:08:42.865Z,42.02
2016-12-09T08:09:23.702Z,41.81
2016-12-09T08:10:04.510Z,42.1
2016-12-09T08:10:45.331Z,42.12
2016-12-09T08:11:26.149Z,41.81
2016-12-09T08:12:06.969Z,41.83
2016-12-09T08:12:47.811Z,41.63
2016-12-09T08:13:28.651Z,41.91
2016-12-09T08:14:09.485Z,42.1
2016-12-09T08:14:50.315Z,41.91
2016-12-09T08:15:31.134Z,41.83
2016-12-09T08:16:11.979Z,41.63
2016-12-09T08:16:52.787Z,41.81
2016-12-09T08:17:33.618Z,41.81
2016-12-09T08:18:14.431Z,41.63
2016-12-09T08:18:55.263Z,41.61
2016-12-09T08:19:36.079Z,41.52
2016-12-09T08:20:16.885Z,41.81
2016-12-09T08:20:57.717Z,41.44
2016-12-09T08:21:38.508Z,41.44
2016-12-09T08:22:19.338Z,41.63
2016-12-09T08:23:00.157Z,41.52
2016-12-09T08:23:41.080Z,42
2016-12-09T08:24:22.141Z,42.46
2016-12-09T08:25:02.997Z,42.75
2016-12-09T08:25:43.806Z,42.85
2016-12-09T08:26:24.717Z,42.75
2016-12-09T08:27:05.627Z,42.56
2016-12-09T08:27:46.675Z,42.36
2016-12-09T08:28:28.395Z,42.27
2016-12-09T08:29:09.222Z,42.27
2016-12-09T08:29:50.247Z,42.18
2016-12-09T08:30:31.069Z,42.56
2016-12-09T08:31:11.891Z,41.98
2016-12-09T08:31:52.737Z,41.78
2016-12-09T08:32:33.572Z,41.98
2016-12-09T08:33:14.447Z,41.78
2016-12-09T08:33:56.948Z,41.98
2016-12-09T08:34:37.104Z,42.94
2016-12-09T08:35:17.939Z,43.91
2016-12-09T08:35:58.770Z,44.01
2016-12-09T08:36:39.596Z,43.72
2016-12-09T08:37:20.436Z,43.52
2016-12-09T08:38:01.707Z,43.43
2016-12-09T08:38:42.537Z,43.14
2016-12-09T08:39:23.357Z,43.24
2016-12-09T08:40:04.182Z,42.94
2016-12-09T08:40:45.047Z,43.04
2016-12-09T08:41:25.873Z,43.04
2016-12-09T08:42:06.726Z,42.94
2016-12-09T08:42:47.550Z,43.81
2016-12-09T08:43:28.388Z,44.01
2016-12-09T08:44:09.223Z,44.29
2016-12-09T08:44:50.040Z,43.81
2016-12-09T08:45:30.899Z,44.1
2016-12-09T08:46:11.746Z,44.46
2016-12-09T08:46:52.567Z,44.46